Terminal Aerodrome Forecast
Issued by NWS

Home | Current Version | Previous Version | Text Only | Print | Product List | Glossary On
Versions: 1 2 3 4 5 6 7 8 9 10 11 12 13 14 15 16 17 18 19 20 21 22 23 24 25 26 27 28 29 30 31 32 33 34 35 36 37 38 39 40
000
FTPQ31 PGUM 161737
TAFGUM
TAF

TAF
PTYA 161737Z 1618/1718 17011KT 6SM -RA BKN016 OVC120
      TEMPO 1619/1623 17014G25KT 2SM +TSRA BKN014CB BKN040 OVC070
     FM171500 20012G22KT P6SM VCSH SCT016 BKN040 OVC100=

USA.gov is the U.S. government's official web portal to all federal, state and local government web resources and services.